createdAt,value
2023-02-08T00:01:56.800Z,25.93
2023-02-08T00:05:57.771Z,25.17
2023-02-08T00:09:59.110Z,23.47
2023-02-08T00:14:00.246Z,17.93
2023-02-08T00:18:01.502Z,21.57
2023-02-08T00:22:02.511Z,23.70
2023-02-08T00:26:04.518Z,27.40
2023-02-08T00:30:06.575Z,24.17
2023-02-08T00:34:07.546Z,26.50
2023-02-08T00:38:08.793Z,30.97
2023-02-08T00:42:10.214Z,50.80
2023-02-08T00:46:11.209Z,40.77
2023-02-08T00:50:12.321Z,40.87
2023-02-08T00:54:17.283Z,42.17
2023-02-08T00:58:18.434Z,44.30
2023-02-08T01:02:19.674Z,37.83
2023-02-08T01:06:20.796Z,25.30
2023-02-08T01:10:21.881Z,24.63
2023-02-08T01:14:23.067Z,27.03
2023-02-08T01:18:24.207Z,24.00
2023-02-08T01:22:25.389Z,24.40
2023-02-08T01:26:26.705Z,18.13
2023-02-08T01:30:27.908Z,20.83
2023-02-08T01:34:29.118Z,19.93
2023-02-08T01:38:31.007Z,24.00
2023-02-08T01:42:32.082Z,23.50
2023-02-08T01:46:35.574Z,21.23
2023-02-08T01:50:43.180Z,26.90
2023-02-08T01:54:51.018Z,27.07
2023-02-08T01:58:55.993Z,23.53
2023-02-08T02:02:59.289Z,25.10
2023-02-08T02:07:02.960Z,26.70
2023-02-08T02:11:04.360Z,22.43
2023-02-08T02:15:06.070Z,27.73
2023-02-08T02:19:11.034Z,26.83
2023-02-08T02:23:31.189Z,23.40
2023-02-08T02:27:35.972Z,25.03
2023-02-08T02:31:59.477Z,25.40
2023-02-08T02:36:28.643Z,26.83
2023-02-08T02:40:49.895Z,24.70
2023-02-08T02:45:03.735Z,28.20
2023-02-08T02:49:17.261Z,25.63
2023-02-08T02:53:41.651Z,28.83
2023-02-08T02:57:45.677Z,32.80
2023-02-08T03:01:47.415Z,28.47
2023-02-08T03:05:50.876Z,28.77
2023-02-08T03:10:20.129Z,29.93
2023-02-08T03:14:48.446Z,27.30
2023-02-08T03:19:11.440Z,24.33
2023-02-08T03:23:32.626Z,25.83
2023-02-08T03:27:52.432Z,26.77
2023-02-08T03:31:57.514Z,26.93
2023-02-08T03:36:08.326Z,25.33
2023-02-08T03:40:13.127Z,23.23
2023-02-08T03:44:18.091Z,22.20
2023-02-08T03:48:21.229Z,25.97
2023-02-08T03:52:24.206Z,23.27
2023-02-08T03:56:44.146Z,25.43
2023-02-08T04:00:49.133Z,24.70
2023-02-08T04:04:52.229Z,20.77
2023-02-08T04:08:53.230Z,24.03
2023-02-08T04:12:54.207Z,21.70
2023-02-08T04:16:55.543Z,20.93
2023-02-08T04:20:59.902Z,20.03
2023-02-08T04:25:00.866Z,23.60
2023-02-08T04:29:01.969Z,30.13
2023-02-08T04:33:03.319Z,23.23
2023-02-08T04:37:05.118Z,24.52
2023-02-08T04:41:06.081Z,37.93
2023-02-08T04:45:08.055Z,32.30
2023-02-08T04:49:09.104Z,26.90
2023-02-08T04:53:10.918Z,29.73
2023-02-08T04:57:13.530Z,22.83
2023-02-08T05:01:15.812Z,24.73
2023-02-08T05:05:16.965Z,25.90
2023-02-08T05:09:17.984Z,21.37
2023-02-08T05:13:18.982Z,22.33
2023-02-08T05:17:20.182Z,24.63
2023-02-08T05:21:23.116Z,22.33
2023-02-08T05:25:24.139Z,22.20
2023-02-08T05:29:25.559Z,22.17
2023-02-08T05:33:26.683Z,25.20
2023-02-08T05:37:27.639Z,24.63
2023-02-08T05:41:28.779Z,24.33
2023-02-08T05:45:30.088Z,27.47
2023-02-08T05:49:31.132Z,27.47
2023-02-08T05:53:32.183Z,28.80
2023-02-08T05:57:35.643Z,25.17
2023-02-08T06:01:37.121Z,25.03
2023-02-08T06:05:39.446Z,28.57
2023-02-08T06:09:40.660Z,30.93
2023-02-08T06:13:41.745Z,38.60
2023-02-08T06:17:42.858Z,33.80
2023-02-08T06:21:43.976Z,25.93
2023-02-08T06:25:45.088Z,30.03
2023-02-08T06:29:46.217Z,31.17
2023-02-08T06:33:47.216Z,30.00
2023-02-08T06:37:48.436Z,26.30
2023-02-08T06:41:49.394Z,36.77
2023-02-08T06:45:50.546Z,34.40
2023-02-08T06:49:52.594Z,31.87
2023-02-08T06:53:53.705Z,34.20
2023-02-08T06:57:55.586Z,29.60
2023-02-08T07:01:59.564Z,33.57
2023-02-08T07:06:05.437Z,50.90
2023-02-08T07:10:03.980Z,30.90
2023-02-08T07:14:04.959Z,29.73
2023-02-08T07:18:05.913Z,24.73
2023-02-08T07:22:07.696Z,21.83
2023-02-08T07:26:11.475Z,27.73
2023-02-08T07:30:13.167Z,20.97
2023-02-08T07:34:16.101Z,23.73
2023-02-08T07:38:20.554Z,25.10
2023-02-08T07:42:21.097Z,23.70
2023-02-08T07:46:22.564Z,25.23
2023-02-08T07:50:23.596Z,25.30
2023-02-08T07:54:24.917Z,24.13
2023-02-08T07:58:26.680Z,21.53
2023-02-08T08:02:27.651Z,22.73
2023-02-08T08:06:28.978Z,20.23
2023-02-08T08:10:30.636Z,22.03
2023-02-08T08:14:31.956Z,21.90
2023-02-08T08:18:33.360Z,19.13
2023-02-08T08:22:34.389Z,23.57
2023-02-08T08:26:35.350Z,26.83
2023-02-08T08:30:36.496Z,27.90
2023-02-08T08:34:37.545Z,23.90
2023-02-08T08:38:39.535Z,26.63
2023-02-08T08:42:40.585Z,21.90
2023-02-08T08:46:41.759Z,25.53
2023-02-08T08:50:43.103Z,22.47
2023-02-08T08:54:44.351Z,22.77
2023-02-08T08:58:45.472Z,22.03
2023-02-08T09:02:46.404Z,21.70
2023-02-08T09:06:49.594Z,23.87
2023-02-08T09:10:50.550Z,24.27
2023-02-08T09:14:51.642Z,20.70
2023-02-08T09:18:52.615Z,21.43
2023-02-08T09:22:53.836Z,17.67
2023-02-08T09:26:55.275Z,19.43
2023-02-08T09:30:57.111Z,15.23
2023-02-08T09:34:58.021Z,15.87
2023-02-08T09:39:09.473Z,15.90
2023-02-08T09:43:14.200Z,17.37
2023-02-08T09:47:21.884Z,15.10
2023-02-08T09:51:32.195Z,16.70
2023-02-08T09:55:37.208Z,16.10
2023-02-08T09:59:40.101Z,19.13
2023-02-08T10:03:44.997Z,15.33
2023-02-08T10:07:46.538Z,17.83
2023-02-08T10:11:58.398Z,16.17
2023-02-08T10:16:08.911Z,16.23
2023-02-08T10:20:31.195Z,17.50
2023-02-08T10:24:44.917Z,14.30
2023-02-08T10:29:06.494Z,16.63
2023-02-08T10:33:20.136Z,15.90
2023-02-08T10:37:35.844Z,13.80
2023-02-08T10:41:39.274Z,16.80
2023-02-08T10:45:46.961Z,15.13
2023-02-08T10:50:08.349Z,16.80
2023-02-08T10:54:12.327Z,17.60
2023-02-08T10:58:23.298Z,13.53
2023-02-08T11:02:28.290Z,12.47
2023-02-08T11:06:29.357Z,15.50
2023-02-08T11:10:30.883Z,15.00
2023-02-08T11:14:46.067Z,15.30
2023-02-08T11:18:48.035Z,14.10
2023-02-08T11:22:49.108Z,12.97
2023-02-08T11:26:50.815Z,13.50
2023-02-08T11:30:56.569Z,13.93
2023-02-08T11:35:03.465Z,13.53
2023-02-08T11:39:17.164Z,16.43
2023-02-08T11:43:24.390Z,16.03
2023-02-08T11:47:28.859Z,17.63
2023-02-08T11:51:34.121Z,13.93
2023-02-08T11:55:35.329Z,14.73
2023-02-08T11:59:36.466Z,15.27
2023-02-08T12:03:39.938Z,14.63
2023-02-08T12:08:01.223Z,14.00
2023-02-08T12:12:12.982Z,16.23
2023-02-08T12:16:20.913Z,20.07
2023-02-08T12:20:25.655Z,17.37
2023-02-08T12:24:36.532Z,15.53
2023-02-08T12:29:02.328Z,15.63
2023-02-08T12:33:07.131Z,15.80
2023-02-08T12:37:36.337Z,14.53
2023-02-08T12:42:01.048Z,13.97
2023-02-08T12:46:08.787Z,13.27
2023-02-08T12:50:30.952Z,14.93
2023-02-08T12:54:35.732Z,16.03
2023-02-08T12:58:46.374Z,13.27
2023-02-08T13:03:13.723Z,14.10
2023-02-08T13:07:21.570Z,14.83
2023-02-08T13:11:41.317Z,14.30
2023-02-08T13:15:55.146Z,12.30
2023-02-08T13:20:18.309Z,13.57
2023-02-08T13:24:23.152Z,14.10
2023-02-08T13:28:25.740Z,14.47
2023-02-08T13:36:40.613Z,15.63
2023-02-08T13:40:42.687Z,14.20
2023-02-08T13:44:47.778Z,13.00
2023-02-08T13:48:52.339Z,12.60
2023-02-08T13:52:53.860Z,11.50
2023-02-08T13:56:55.322Z,12.53
2023-02-08T14:01:00.950Z,11.47
2023-02-08T14:05:40.814Z,12.03
2023-02-08T14:10:14.551Z,13.97
2023-02-08T14:14:28.313Z,13.87
2023-02-08T14:18:30.128Z,11.57
2023-02-08T14:22:35.016Z,12.97
2023-02-08T14:26:36.915Z,15.20
2023-02-08T14:30:39.313Z,11.97
2023-02-08T14:34:40.931Z,11.77
2023-02-08T14:38:48.958Z,10.67
2023-02-08T14:43:16.781Z,11.63
2023-02-08T14:47:27.654Z,13.47
2023-02-08T14:51:32.666Z,11.13
2023-02-08T14:55:43.559Z,11.73
2023-02-08T14:59:45.639Z,10.70
2023-02-08T15:03:50.568Z,11.97
2023-02-08T15:07:54.692Z,11.93
2023-02-08T15:12:06.407Z,11.93
2023-02-08T15:16:10.766Z,9.57
2023-02-08T15:20:21.414Z,14.13
2023-02-08T15:24:26.433Z,10.03
2023-02-08T15:28:30.086Z,9.53
2023-02-08T15:32:31.519Z,10.70
2023-02-08T15:36:36.284Z,10.20
2023-02-08T15:40:37.493Z,11.03
2023-02-08T15:44:41.957Z,10.00
2023-02-08T15:48:45.449Z,10.93
2023-02-08T15:52:48.058Z,8.87
2023-02-08T15:57:04.802Z,9.47
2023-02-08T16:01:08.919Z,10.57
2023-02-08T16:05:19.985Z,9.70
2023-02-08T16:09:27.767Z,9.23
2023-02-08T16:13:35.139Z,10.13
2023-02-08T16:17:45.174Z,11.90
2023-02-08T16:21:46.320Z,11.00
2023-02-08T16:25:49.409Z,9.17
2023-02-08T16:29:51.096Z,11.40
2023-02-08T16:34:01.052Z,13.70
2023-02-08T16:38:05.525Z,13.27
2023-02-08T16:42:22.605Z,12.50
2023-02-08T16:46:25.295Z,11.70
2023-02-08T16:50:27.607Z,11.93
2023-02-08T16:54:29.082Z,31.07
2023-02-08T16:58:30.135Z,28.53
2023-02-08T17:02:31.292Z,36.67
2023-02-08T17:06:35.007Z,22.93
2023-02-08T17:10:37.284Z,24.77
2023-02-08T17:14:38.704Z,21.00
2023-02-08T17:18:40.153Z,19.07
2023-02-08T17:22:41.143Z,21.20
2023-02-08T17:26:43.300Z,18.10
2023-02-08T17:30:45.819Z,26.33
2023-02-08T17:34:46.799Z,18.47
2023-02-08T17:38:48.167Z,17.50
2023-02-08T17:42:51.695Z,21.37
2023-02-08T17:46:52.827Z,18.60
2023-02-08T17:50:53.922Z,16.40
2023-02-08T17:54:54.901Z,19.25
2023-02-08T17:58:56.031Z,25.67
2023-02-08T18:02:59.049Z,25.37
2023-02-08T18:06:59.767Z,22.60
2023-02-08T18:11:05.571Z,24.67
2023-02-08T18:15:09.571Z,48.37
2023-02-08T18:19:10.861Z,31.40
2023-02-08T18:23:12.618Z,23.23
2023-02-08T18:27:14.184Z,23.90
2023-02-08T18:31:19.157Z,21.23
2023-02-08T18:35:20.461Z,21.50
2023-02-08T18:39:22.605Z,15.63
2023-02-08T18:43:24.928Z,13.23
2023-02-08T18:47:26.006Z,10.93
2023-02-08T18:51:27.647Z,14.70
2023-02-08T18:55:28.617Z,14.07
2023-02-08T18:59:30.057Z,15.27
2023-02-08T19:03:31.554Z,12.13
2023-02-08T19:07:34.337Z,16.20
2023-02-08T19:11:37.469Z,17.67
2023-02-08T19:15:39.983Z,17.87
2023-02-08T19:19:41.457Z,26.27
2023-02-08T19:23:44.717Z,25.20
2023-02-08T19:27:50.936Z,25.17
2023-02-08T19:31:52.072Z,20.47
2023-02-08T19:35:53.118Z,15.00
2023-02-08T19:39:54.069Z,20.20
2023-02-08T19:43:55.238Z,17.30
2023-02-08T19:47:56.692Z,16.10
2023-02-08T19:51:57.684Z,16.47
2023-02-08T19:56:04.319Z,25.17
2023-02-08T20:00:11.290Z,18.73
2023-02-08T20:04:08.950Z,18.90
2023-02-08T20:08:10.795Z,18.13
2023-02-08T20:12:11.891Z,18.03
2023-02-08T20:16:13.256Z,45.10
2023-02-08T20:20:14.551Z,32.33
2023-02-08T20:24:16.015Z,26.37
2023-02-08T20:28:17.272Z,23.43
2023-02-08T20:32:18.877Z,16.27
2023-02-08T20:36:22.706Z,16.70
2023-02-08T20:40:23.789Z,15.53
2023-02-08T20:44:24.781Z,17.70
2023-02-08T20:48:25.869Z,18.77
2023-02-08T20:52:27.780Z,17.67
2023-02-08T20:56:34.247Z,17.57
2023-02-08T21:00:42.210Z,17.43
2023-02-08T21:04:38.284Z,16.03
2023-02-08T21:08:39.694Z,16.60
2023-02-08T21:12:40.939Z,17.07
2023-02-08T21:16:42.003Z,18.27
2023-02-08T21:20:43.638Z,17.40
2023-02-08T21:24:44.906Z,19.23
2023-02-08T21:28:46.548Z,20.77
2023-02-08T21:32:48.208Z,19.30
2023-02-08T21:36:49.275Z,19.73
2023-02-08T21:40:50.278Z,18.53
2023-02-08T21:44:51.438Z,19.50
2023-02-08T21:49:11.073Z,20.77
2023-02-08T21:53:33.045Z,18.10
2023-02-08T21:57:37.252Z,16.13
2023-02-08T22:01:38.410Z,15.37
2023-02-08T22:05:57.984Z,19.10
2023-02-08T22:09:59.169Z,22.00
2023-02-08T22:14:00.580Z,19.80
2023-02-08T22:18:02.789Z,20.87
2023-02-08T22:22:04.086Z,24.20
2023-02-08T22:26:09.057Z,22.00
2023-02-08T22:30:13.456Z,23.77
2023-02-08T22:34:14.496Z,21.47
2023-02-08T22:38:15.617Z,24.63
2023-02-08T22:42:16.744Z,25.73
2023-02-08T22:46:17.885Z,23.83
2023-02-08T22:50:19.292Z,21.40
2023-02-08T22:54:20.296Z,23.43
2023-02-08T22:58:21.841Z,20.97
2023-02-08T23:02:23.934Z,22.47
2023-02-08T23:06:24.964Z,20.67
2023-02-08T23:10:26.086Z,22.67
2023-02-08T23:14:27.158Z,29.80
2023-02-08T23:18:28.288Z,28.60
2023-02-08T23:22:29.363Z,24.83
2023-02-08T23:26:30.390Z,25.53
2023-02-08T23:30:31.469Z,23.40
2023-02-08T23:34:34.146Z,28.87
2023-02-08T23:38:35.529Z,24.50
2023-02-08T23:42:36.661Z,27.90
2023-02-08T23:46:38.417Z,24.10
2023-02-08T23:50:39.429Z,22.00
2023-02-08T23:54:41.097Z,25.57
2023-02-08T23:58:44.141Z,27.03
